الصفحة الرئيسية
METAR-TAF:

METAR-TAF

مطار :

مطار انجمينا الدولي

انجمينا, تشاد

دائرة عرض: 12-08N, خط طول: 015-02E, ارتفاع: 295 متر

مراقبة الطقس الحالي

تاريخ ووقت الإصدار 38 دقيقة قبل الساعة 23:00UTC
ريح 5 عقدة من الجنوب
درجة الحرارة 27°درجة مئوية
الرطوبة 89%
ضغط 1011 hPa
الرؤية 10 كم أو أكثر
الغيوم لا تقل 1500 م ولا وجود لمزنة ركامية السحاب الأسود

METAR: FTTJ 242300Z 19005KT CAVOK 27/25 Q1011 NOSIG

زمن: 00:38 (23:38 UTC)

توقعات

تاريخ ووقت الإصدار 38 دقيقة قبل الساعة 23:00UTC
التوقعات صالحة من25 الساعة 00 UTC إلى 26 الساعة 06 UTC
ريح 6 عقدة من الجنوب/الجنوب الغربي
الرؤية 10 كم أو أكثر
غيوم قليلة على ارتفاع 4000 قدم
نظرية الاحتمالات 30% :
مؤقت
من 25 الساعة 06 UTC إلى 25 الساعة 12 UTC
ريح 15 عقدةمن اتجاهات متغيرة تتزايد حتى 25 عقدة
الرؤية: 4000 متر
غيوم متفرقة على ارتفاع 2000 قدم
غيوم قليلة على ارتفاع 3300 قدم, مزنة ركامية.
عاصفة رعدية, مطر

TAF: FTTJ 242300Z 2500/2606 20006KT 9999 FEW040 PROB30 TEMPO 2506/2512 VRB15G25KT 4000 TSRA SCT020 FEW033CB

أرصاد الطقس والتوقعات من أكثر من 4000 مطار (تقارير الطقس للمطار METAR والتنبؤ بالطقس بالمطارTAF).

المحطات المتاحة هي النقط الصفراء والحمراء على الخريطة.

حرك المؤشر فوق النقطة لمعرفة اسم المحطة.

ثم انقر لمعرفة أرصاد وتوقعات الطقس.

لتغيير الخارطة: اضغط على الأزرار الخضراء مع رمز الصليب الأسود للتكبير. على الزر الأخضر مع شرطة للتصغير، أو على الأسهم الخضراء للخرائط المجاورة.


METAR-TAF: